createdAt,value
2023-01-11T00:00:32.412Z,1008.226560124
2023-01-11T00:01:32.401Z,1008.1249687599999
2023-01-11T00:02:32.511Z,1008.226560124
2023-01-11T00:03:32.402Z,1008.226560124
2023-01-11T00:04:32.473Z,1008.226560124
2023-01-11T00:05:32.402Z,1008.328151488
2023-01-11T00:06:32.459Z,1008.328151488
2023-01-11T00:07:32.394Z,1008.226560124
2023-01-11T00:08:43.235Z,1008.226560124
2023-01-11T00:09:47.179Z,1008.226560124
2023-01-11T00:10:51.312Z,1008.226560124
2023-01-11T00:11:55.236Z,1008.1249687599999
2023-01-11T00:12:59.199Z,1008.1249687599999
2023-01-11T00:14:03.237Z,1008.328151488
2023-01-11T00:15:07.195Z,1008.328151488
2023-01-11T00:16:11.248Z,1008.1249687599999
2023-01-11T00:17:15.211Z,1008.226560124
2023-01-11T00:18:19.235Z,1008.023377396
2023-01-11T00:19:23.239Z,1008.1249687599999
2023-01-11T00:20:27.186Z,1008.1249687599999
2023-01-11T00:21:31.210Z,1008.226560124
2023-01-11T00:22:31.468Z,1008.226560124
2023-01-11T00:23:31.388Z,1007.921786032
2023-01-11T00:24:31.419Z,1008.1249687599999
2023-01-11T00:25:31.246Z,1008.1249687599999
2023-01-11T00:26:31.395Z,1007.921786032
2023-01-11T00:27:31.396Z,1008.023377396
2023-01-11T00:28:31.402Z,1008.1249687599999
2023-01-11T00:29:31.330Z,1008.226560124
2023-01-11T00:30:31.395Z,1008.226560124
2023-01-11T00:31:31.483Z,1007.921786032
2023-01-11T00:32:31.430Z,1007.921786032
2023-01-11T00:33:31.192Z,1008.1249687599999
2023-01-11T00:34:31.379Z,1008.023377396
2023-01-11T00:35:31.512Z,1008.1249687599999
2023-01-11T00:36:31.415Z,1007.921786032
2023-01-11T00:37:31.201Z,1008.1249687599999
2023-01-11T00:38:31.385Z,1008.1249687599999
2023-01-11T00:39:31.452Z,1007.921786032
2023-01-11T00:40:31.417Z,1008.023377396
2023-01-11T00:41:31.216Z,1007.8201946679999
2023-01-11T00:42:31.406Z,1008.1249687599999
2023-01-11T00:43:31.415Z,1008.1249687599999
2023-01-11T00:44:31.413Z,1008.1249687599999
2023-01-11T00:45:31.405Z,1007.8201946679999
2023-01-11T00:46:31.436Z,1007.8201946679999
2023-01-11T00:47:31.404Z,1007.718603304
2023-01-11T00:48:31.375Z,1008.023377396
2023-01-11T00:49:31.210Z,1007.8201946679999
2023-01-11T00:50:31.433Z,1007.921786032
2023-01-11T00:51:31.397Z,1008.023377396
2023-01-11T00:52:31.385Z,1007.921786032
2023-01-11T00:53:32.223Z,1007.8201946679999
2023-01-11T00:54:35.159Z,1007.6170119399999
2023-01-11T00:55:39.160Z,1007.6170119399999
2023-01-11T00:56:43.153Z,1007.921786032
2023-01-11T00:57:47.215Z,1007.8201946679999
2023-01-11T00:58:51.135Z,1007.718603304
2023-01-11T00:59:55.172Z,1007.718603304
2023-01-11T01:00:59.251Z,1007.6170119399999
2023-01-11T01:02:03.170Z,1007.8201946679999
2023-01-11T01:03:07.162Z,1007.718603304
2023-01-11T01:04:11.171Z,1007.718603304
2023-01-11T01:05:15.169Z,1007.6170119399999
2023-01-11T01:06:19.164Z,1007.5154205759999
2023-01-11T01:07:23.168Z,1007.718603304
2023-01-11T01:08:27.140Z,1007.6170119399999
2023-01-11T01:09:31.141Z,1007.718603304
2023-01-11T01:10:31.401Z,1007.6170119399999
2023-01-11T01:11:31.444Z,1007.6170119399999
2023-01-11T01:12:31.398Z,1007.718603304
2023-01-11T01:13:31.170Z,1007.718603304
2023-01-11T01:14:31.431Z,1007.6170119399999
2023-01-11T01:15:31.492Z,1007.718603304
2023-01-11T01:16:31.402Z,1007.718603304
2023-01-11T01:17:31.161Z,1007.8201946679999
2023-01-11T01:18:31.408Z,1007.6170119399999
2023-01-11T01:19:31.464Z,1007.921786032
2023-01-11T01:20:31.374Z,1007.8201946679999
2023-01-11T01:21:31.165Z,1007.718603304
2023-01-11T01:22:31.390Z,1007.5154205759999
2023-01-11T01:23:31.381Z,1007.8201946679999
2023-01-11T01:24:31.432Z,1007.718603304
2023-01-11T01:25:31.140Z,1007.718603304
2023-01-11T01:26:31.418Z,1007.718603304
2023-01-11T01:27:31.382Z,1007.6170119399999
2023-01-11T01:28:31.449Z,1007.6170119399999
2023-01-11T01:29:31.149Z,1007.6170119399999
2023-01-11T01:30:31.406Z,1007.5154205759999
2023-01-11T01:31:31.562Z,1007.6170119399999
2023-01-11T01:32:31.397Z,1007.5154205759999
2023-01-11T01:33:31.167Z,1007.718603304
2023-01-11T01:34:31.389Z,1007.6170119399999
2023-01-11T01:35:31.395Z,1007.718603304
2023-01-11T01:36:31.407Z,1007.6170119399999
2023-01-11T01:37:31.122Z,1007.718603304
2023-01-11T01:38:31.411Z,1007.5154205759999
2023-01-11T01:39:31.409Z,1007.6170119399999
2023-01-11T01:40:31.568Z,1007.718603304
2023-01-11T01:41:31.220Z,1007.718603304
2023-01-11T01:42:31.511Z,1007.8201946679999
2023-01-11T01:43:31.621Z,1007.5154205759999
2023-01-11T01:44:31.569Z,1007.413829212
2023-01-11T01:45:31.252Z,1007.5154205759999
2023-01-11T01:46:31.612Z,1007.5154205759999
2023-01-11T01:47:31.556Z,1007.6170119399999
2023-01-11T01:48:31.567Z,1007.5154205759999
2023-01-11T01:49:31.324Z,1007.6170119399999
2023-01-11T01:50:31.490Z,1007.5154205759999
2023-01-11T01:51:31.584Z,1007.5154205759999
2023-01-11T01:52:31.553Z,1007.3122378479999
2023-01-11T01:53:31.241Z,1007.5154205759999
2023-01-11T01:54:31.613Z,1007.5154205759999
2023-01-11T01:55:31.382Z,1007.413829212
2023-01-11T01:56:31.379Z,1007.413829212
2023-01-11T01:57:31.129Z,1007.3122378479999
2023-01-11T01:58:31.355Z,1007.413829212
2023-01-11T01:59:31.410Z,1007.413829212
2023-01-11T02:00:31.384Z,1007.3122378479999
2023-01-11T02:01:31.184Z,1007.3122378479999
2023-01-11T02:02:31.429Z,1007.3122378479999
2023-01-11T02:03:31.390Z,1007.0074637559999
2023-01-11T02:04:31.400Z,1007.0074637559999
2023-01-11T02:05:31.162Z,1007.10905512
2023-01-11T02:06:31.483Z,1007.10905512
2023-01-11T02:07:31.430Z,1007.0074637559999
2023-01-11T02:08:31.387Z,1006.9397361800001
2023-01-11T02:09:31.115Z,1007.10905512
2023-01-11T02:10:31.411Z,1007.0074637559999
2023-01-11T02:11:31.452Z,1007.10905512
2023-01-11T02:12:31.406Z,1007.0074637559999
2023-01-11T02:13:31.114Z,1007.0074637559999
2023-01-11T02:14:31.395Z,1007.10905512
2023-01-11T02:15:31.383Z,1007.10905512
2023-01-11T02:16:31.367Z,1007.0074637559999
2023-01-11T02:17:31.129Z,1006.9397361800001
2023-01-11T02:18:31.372Z,1007.0074637559999
2023-01-11T02:19:31.361Z,1007.10905512
2023-01-11T02:20:31.362Z,1006.9397361800001
2023-01-11T02:21:31.140Z,1007.2106464839999
2023-01-11T02:22:31.372Z,1006.9397361800001
2023-01-11T02:23:31.386Z,1007.0074637559999
2023-01-11T02:24:31.400Z,1007.10905512
2023-01-11T02:25:31.188Z,1006.9397361800001
2023-01-11T02:26:31.413Z,1007.0074637559999
2023-01-11T02:27:31.396Z,1006.736553452
2023-01-11T02:28:31.373Z,1006.838144816
2023-01-11T02:29:31.134Z,1006.9397361800001
2023-01-11T02:30:31.388Z,1006.9397361800001
2023-01-11T02:31:31.422Z,1006.6349620879998
2023-01-11T02:32:31.413Z,1006.6349620879998
2023-01-11T02:33:31.103Z,1006.9397361800001
2023-01-11T02:34:31.378Z,1006.736553452
2023-01-11T02:35:31.355Z,1006.736553452
2023-01-11T02:36:31.392Z,1006.838144816
2023-01-11T02:37:31.142Z,1006.736553452
2023-01-11T02:38:31.372Z,1006.838144816
2023-01-11T02:39:31.446Z,1006.6349620879998
2023-01-11T02:40:31.393Z,1006.736553452
2023-01-11T02:41:31.112Z,1006.533370724
2023-01-11T02:42:31.368Z,1006.6349620879998
2023-01-11T02:43:31.380Z,1006.533370724
2023-01-11T02:44:31.344Z,1006.838144816
2023-01-11T02:45:31.229Z,1006.6349620879998
2023-01-11T02:46:31.457Z,1006.736553452
2023-01-11T02:47:31.391Z,1006.533370724
2023-01-11T02:48:31.388Z,1006.43177936
2023-01-11T02:49:31.115Z,1006.533370724
2023-01-11T02:50:31.409Z,1006.3301879959998
2023-01-11T02:51:31.397Z,1006.3301879959998
2023-01-11T02:52:31.382Z,1006.6349620879998
2023-01-11T02:53:31.093Z,1006.6349620879998
2023-01-11T02:54:31.387Z,1006.43177936
2023-01-11T02:55:31.395Z,1006.228596632
2023-01-11T02:56:31.355Z,1006.6349620879998
2023-01-11T02:57:31.119Z,1006.533370724
2023-01-11T02:58:31.374Z,1006.6349620879998
2023-01-11T02:59:31.413Z,1006.736553452
2023-01-11T03:00:31.369Z,1006.43177936
2023-01-11T03:01:31.217Z,1006.3301879959998
2023-01-11T03:02:31.512Z,1006.3301879959998
2023-01-11T03:03:31.394Z,1006.228596632
2023-01-11T03:04:31.403Z,1006.228596632
2023-01-11T03:05:31.102Z,1006.3301879959998
2023-01-11T03:06:31.416Z,1006.3301879959998
2023-01-11T03:07:31.386Z,1006.43177936
2023-01-11T03:08:31.369Z,1006.127005268
2023-01-11T03:09:31.100Z,1006.3301879959998
2023-01-11T03:10:31.504Z,1006.3301879959998
2023-01-11T03:11:31.492Z,1006.0254139039998
2023-01-11T03:12:31.507Z,1006.127005268
2023-01-11T03:13:31.190Z,1006.0254139039998
2023-01-11T03:14:31.524Z,1006.228596632
2023-01-11T03:15:31.487Z,1006.228596632
2023-01-11T03:16:31.595Z,1006.127005268
2023-01-11T03:17:31.063Z,1006.127005268
2023-01-11T03:18:31.375Z,1006.127005268
2023-01-11T03:19:31.370Z,1006.127005268
2023-01-11T03:20:31.438Z,1006.127005268
2023-01-11T03:21:31.186Z,1006.127005268
2023-01-11T03:22:31.452Z,1006.228596632
2023-01-11T03:23:31.438Z,1006.0254139039998
2023-01-11T03:24:31.367Z,1005.8222311760001
2023-01-11T03:25:31.189Z,1006.0254139039998
2023-01-11T03:26:31.479Z,1005.92382254
2023-01-11T03:27:31.506Z,1006.0254139039998
2023-01-11T03:28:31.515Z,1006.0254139039998
2023-01-11T03:29:31.086Z,1005.6190484480001
2023-01-11T03:30:31.461Z,1005.8222311760001
2023-01-11T03:31:31.435Z,1005.7206398120001
2023-01-11T03:32:31.539Z,1005.92382254
2023-01-11T03:33:31.044Z,1005.5174570840001
2023-01-11T03:34:31.522Z,1005.8222311760001
2023-01-11T03:35:31.376Z,1005.7206398120001
2023-01-11T03:36:31.506Z,1005.8222311760001
2023-01-11T03:37:31.208Z,1005.7206398120001
2023-01-11T03:38:31.357Z,1005.7206398120001
2023-01-11T03:39:31.370Z,1005.7206398120001
2023-01-11T03:40:31.629Z,1005.5174570840001
2023-01-11T03:41:31.103Z,1005.41586572
2023-01-11T03:42:31.429Z,1005.41586572
2023-01-11T03:43:31.514Z,1005.6190484480001
2023-01-11T03:44:31.470Z,1005.5174570840001
2023-01-11T03:45:31.176Z,1005.5174570840001
2023-01-11T03:46:31.458Z,1005.5174570840001
2023-01-11T03:47:31.385Z,1005.5174570840001
2023-01-11T03:48:31.355Z,1005.212682992
2023-01-11T03:49:31.015Z,1005.41586572
2023-01-11T03:50:31.519Z,1005.5174570840001
2023-01-11T03:51:31.409Z,1005.5174570840001
2023-01-11T03:52:31.343Z,1005.5174570840001
2023-01-11T03:53:31.045Z,1005.5174570840001
2023-01-11T03:54:31.380Z,1005.41586572
2023-01-11T03:55:31.386Z,1005.41586572
2023-01-11T03:56:31.364Z,1005.314274356
2023-01-11T03:57:31.057Z,1005.314274356
2023-01-11T03:58:31.401Z,1005.212682992
2023-01-11T03:59:31.378Z,1005.212682992
2023-01-11T04:00:32.735Z,1005.5174570840001
2023-01-11T04:01:31.068Z,1005.212682992
2023-01-11T04:02:31.360Z,1005.0095002639999
2023-01-11T04:03:31.394Z,1005.212682992
2023-01-11T04:04:31.430Z,1005.212682992
2023-01-11T04:05:31.055Z,1005.1110916279999
2023-01-11T04:06:31.543Z,1004.9079089
2023-01-11T04:07:31.382Z,1005.1110916279999
2023-01-11T04:08:31.382Z,1005.1110916279999
2023-01-11T04:09:31.046Z,1005.1110916279999
2023-01-11T04:10:31.371Z,1005.212682992
2023-01-11T04:11:31.380Z,1005.1110916279999
2023-01-11T04:12:31.373Z,1005.1110916279999
2023-01-11T04:13:31.098Z,1005.212682992
2023-01-11T04:14:31.372Z,1005.1110916279999
2023-01-11T04:15:31.399Z,1004.9079089
2023-01-11T04:16:31.482Z,1005.1110916279999
2023-01-11T04:17:31.009Z,1004.9079089
2023-01-11T04:18:31.384Z,1004.9079089
2023-01-11T04:19:31.385Z,1004.9079089
2023-01-11T04:20:31.513Z,1005.1110916279999
2023-01-11T04:21:31.036Z,1004.9079089
2023-01-11T04:22:31.451Z,1004.8401813239999
2023-01-11T04:23:31.382Z,1005.0095002639999
2023-01-11T04:24:31.366Z,1004.9079089
2023-01-11T04:25:31.047Z,1004.7385899600001
2023-01-11T04:26:31.383Z,1004.7385899600001
2023-01-11T04:27:31.363Z,1004.9079089
2023-01-11T04:28:31.365Z,1004.7385899600001
2023-01-11T04:29:31.090Z,1004.636998596
2023-01-11T04:30:31.372Z,1004.7385899600001
2023-01-11T04:31:31.408Z,1004.636998596
2023-01-11T04:32:31.420Z,1004.636998596
2023-01-11T04:33:31.083Z,1004.636998596
2023-01-11T04:34:31.374Z,1004.636998596
2023-01-11T04:35:31.397Z,1004.4338158680001
2023-01-11T04:36:31.392Z,1004.535407232
2023-01-11T04:37:30.997Z,1004.7385899600001
2023-01-11T04:38:31.380Z,1004.636998596
2023-01-11T04:39:31.425Z,1004.636998596
2023-01-11T04:40:31.476Z,1004.636998596
2023-01-11T04:41:31.021Z,1004.535407232
2023-01-11T04:42:31.395Z,1004.535407232
2023-01-11T04:43:31.368Z,1004.332224504
2023-01-11T04:44:31.323Z,1004.332224504
2023-01-11T04:45:31.134Z,1004.4338158680001
2023-01-11T04:46:31.415Z,1004.332224504
2023-01-11T04:47:31.464Z,1004.23063314
2023-01-11T04:48:31.372Z,1004.23063314
2023-01-11T04:49:31.191Z,1004.4338158680001
2023-01-11T04:50:31.453Z,1004.23063314
2023-01-11T04:51:31.353Z,1004.23063314
2023-01-11T04:52:31.371Z,1004.23063314
2023-01-11T04:53:31.000Z,1004.027450412
2023-01-11T04:54:31.374Z,1004.23063314
2023-01-11T04:55:31.355Z,1004.027450412
2023-01-11T04:56:31.369Z,1004.23063314
2023-01-11T04:57:31.082Z,1003.925859048
2023-01-11T04:58:31.406Z,1004.027450412
2023-01-11T04:59:31.347Z,1003.925859048
2023-01-11T05:00:31.361Z,1003.621084956
2023-01-11T05:01:31.149Z,1003.72267632
2023-01-11T05:02:31.390Z,1003.925859048
2023-01-11T05:03:32.417Z,1003.925859048
2023-01-11T05:04:43.029Z,1003.72267632
2023-01-11T05:05:47.028Z,1003.621084956
2023-01-11T05:06:51.058Z,1004.1290417760001
2023-01-11T05:07:55.076Z,1003.8242676840001
2023-01-11T05:08:58.998Z,1003.621084956
2023-01-11T05:10:03.047Z,1003.925859048
2023-01-11T05:11:07.051Z,1003.72267632
2023-01-11T05:12:11.060Z,1003.621084956
2023-01-11T05:13:15.038Z,1003.72267632
2023-01-11T05:14:19.043Z,1003.417902228
2023-01-11T05:15:23.054Z,1003.72267632
2023-01-11T05:16:27.081Z,1003.8242676840001
2023-01-11T05:17:31.073Z,1003.5194935919999
2023-01-11T05:18:31.354Z,1003.621084956
2023-01-11T05:19:31.397Z,1003.621084956
2023-01-11T05:20:31.400Z,1003.5194935919999
2023-01-11T05:21:30.991Z,1003.5194935919999
2023-01-11T05:22:31.417Z,1003.5194935919999
2023-01-11T05:23:31.375Z,1003.316310864
2023-01-11T05:24:31.375Z,1003.621084956
2023-01-11T05:25:31.012Z,1003.316310864
2023-01-11T05:26:33.233Z,1003.5194935919999
2023-01-11T05:27:31.381Z,1003.2147194999999
2023-01-11T05:28:31.382Z,1003.417902228
2023-01-11T05:29:31.025Z,1003.316310864
2023-01-11T05:30:31.369Z,1003.417902228
2023-01-11T05:31:31.410Z,1003.417902228
2023-01-11T05:32:31.364Z,1003.417902228
2023-01-11T05:33:30.994Z,1003.417902228
2023-01-11T05:34:31.401Z,1003.2147194999999
2023-01-11T05:35:31.427Z,1003.113128136
2023-01-11T05:36:31.348Z,1002.9099454079999
2023-01-11T05:37:31.016Z,1002.808354044
2023-01-11T05:38:31.394Z,1003.316310864
2023-01-11T05:39:31.379Z,1003.113128136
2023-01-11T05:40:31.327Z,1003.113128136
2023-01-11T05:41:30.982Z,1003.2147194999999
2023-01-11T05:42:31.359Z,1003.113128136
2023-01-11T05:43:31.381Z,1003.011536772
2023-01-11T05:44:31.389Z,1003.011536772
2023-01-11T05:45:31.056Z,1002.9099454079999
2023-01-11T05:46:31.372Z,1003.113128136
2023-01-11T05:47:31.355Z,1002.808354044
2023-01-11T05:48:31.335Z,1002.70676268
2023-01-11T05:49:31.044Z,1002.9099454079999
2023-01-11T05:50:31.344Z,1002.9099454079999
2023-01-11T05:51:31.393Z,1002.6390351040001
2023-01-11T05:52:31.392Z,1002.70676268
2023-01-11T05:53:30.976Z,1002.6390351040001
2023-01-11T05:54:31.382Z,1002.9099454079999
2023-01-11T05:55:31.470Z,1002.6390351040001
2023-01-11T05:56:31.341Z,1002.808354044
2023-01-11T05:57:30.949Z,1002.5374437400001
2023-01-11T05:58:31.367Z,1002.808354044
2023-01-11T05:59:32.280Z,1002.6390351040001
2023-01-11T06:00:31.371Z,1002.6390351040001
2023-01-11T06:01:30.968Z,1002.70676268
2023-01-11T06:02:31.492Z,1002.6390351040001
2023-01-11T06:03:31.353Z,1002.6390351040001
2023-01-11T06:04:31.414Z,1002.70676268
2023-01-11T06:05:30.980Z,1002.6390351040001
2023-01-11T06:06:31.367Z,1002.70676268
2023-01-11T06:07:32.363Z,1002.6390351040001
2023-01-11T06:08:31.380Z,1002.3342610120001
2023-01-11T06:09:31.007Z,1002.5374437400001
2023-01-11T06:10:31.368Z,1002.5374437400001
2023-01-11T06:11:31.377Z,1002.435852376
2023-01-11T06:12:31.360Z,1002.435852376
2023-01-11T06:13:30.982Z,1002.3342610120001
2023-01-11T06:14:31.387Z,1002.3342610120001
2023-01-11T06:15:31.342Z,1002.3342610120001
2023-01-11T06:16:31.418Z,1002.232669648
2023-01-11T06:17:30.989Z,1002.3342610120001
2023-01-11T06:18:31.392Z,1002.5374437400001
2023-01-11T06:19:31.343Z,1002.3342610120001
2023-01-11T06:20:31.429Z,1002.3342610120001
2023-01-11T06:21:30.999Z,1002.232669648
2023-01-11T06:22:31.362Z,1002.131078284
2023-01-11T06:23:31.370Z,1002.232669648
2023-01-11T06:24:31.358Z,1002.131078284
2023-01-11T06:25:30.949Z,1002.232669648
2023-01-11T06:26:31.382Z,1002.0294869200001
2023-01-11T06:27:31.350Z,1002.131078284
2023-01-11T06:28:31.394Z,1002.131078284
2023-01-11T06:29:30.937Z,1002.131078284
2023-01-11T06:30:31.461Z,1002.131078284
2023-01-11T06:31:31.370Z,1002.131078284
2023-01-11T06:32:31.364Z,1002.131078284
2023-01-11T06:33:30.993Z,1002.0294869200001
2023-01-11T06:34:31.368Z,1001.927895556
2023-01-11T06:35:31.329Z,1002.131078284
2023-01-11T06:36:31.367Z,1002.131078284
2023-01-11T06:37:30.989Z,1001.927895556
2023-01-11T06:38:31.345Z,1002.3342610120001
2023-01-11T06:39:31.370Z,1002.0294869200001
2023-01-11T06:40:31.413Z,1001.826304192
2023-01-11T06:41:30.985Z,1001.5215301
2023-01-11T06:42:31.377Z,1001.927895556
2023-01-11T06:43:31.351Z,1001.724712828
2023-01-11T06:44:31.364Z,1001.724712828
2023-01-11T06:45:30.911Z,1001.826304192
2023-01-11T06:46:31.442Z,1001.826304192
2023-01-11T06:47:31.375Z,1001.826304192
2023-01-11T06:48:31.386Z,1001.826304192
2023-01-11T06:49:30.966Z,1001.724712828
2023-01-11T06:50:31.460Z,1001.826304192
2023-01-11T06:51:31.384Z,1001.826304192
2023-01-11T06:52:31.383Z,1001.5215301
2023-01-11T06:53:30.939Z,1002.0294869200001
2023-01-11T06:54:31.349Z,1001.5215301
2023-01-11T06:55:31.368Z,1001.826304192
2023-01-11T06:56:31.357Z,1001.5215301
2023-01-11T06:57:30.931Z,1000.911981916
2023-01-11T06:58:31.358Z,1000.911981916
2023-01-11T06:59:31.355Z,1001.01357328
2023-01-11T07:00:31.458Z,1000.708799188
2023-01-11T07:01:31.008Z,1000.8103905519998
2023-01-11T07:02:31.421Z,1000.8103905519998
2023-01-11T07:03:31.361Z,1001.01357328
2023-01-11T07:04:31.475Z,1000.6072078239999
2023-01-11T07:05:31.065Z,1000.6072078239999
2023-01-11T07:06:31.365Z,1000.6072078239999
2023-01-11T07:07:31.345Z,1000.708799188
2023-01-11T07:08:31.349Z,1000.8103905519998
2023-01-11T07:09:30.982Z,1000.708799188
2023-01-11T07:10:31.354Z,1000.539480248
2023-01-11T07:11:31.335Z,1000.6072078239999
2023-01-11T07:12:31.367Z,1000.6072078239999
2023-01-11T07:13:30.945Z,1000.6072078239999
2023-01-11T07:14:31.361Z,1000.437888884
2023-01-11T07:15:31.339Z,1000.437888884
2023-01-11T07:16:31.356Z,1000.539480248
2023-01-11T07:17:30.905Z,1001.01357328
2023-01-11T07:18:31.361Z,1000.911981916
2023-01-11T07:19:31.337Z,1000.8103905519998
2023-01-11T07:20:31.362Z,1001.01357328
2023-01-11T07:21:30.934Z,1000.8103905519998
2023-01-11T07:22:31.336Z,1000.8103905519998
2023-01-11T07:23:31.373Z,1000.911981916
2023-01-11T07:24:31.370Z,1001.01357328
2023-01-11T07:25:30.981Z,1000.6072078239999
2023-01-11T07:26:31.502Z,1000.8103905519998
2023-01-11T07:27:31.374Z,1000.911981916
2023-01-11T07:28:31.356Z,1000.911981916
2023-01-11T07:29:30.955Z,1001.01357328
2023-01-11T07:30:31.359Z,1000.911981916
2023-01-11T07:31:31.518Z,1000.708799188
2023-01-11T07:32:31.352Z,1001.01357328
2023-01-11T07:33:30.896Z,1001.216756008
2023-01-11T07:34:31.334Z,1000.911981916
2023-01-11T07:35:31.357Z,1000.911981916
2023-01-11T07:36:31.358Z,1000.911981916
2023-01-11T07:37:30.925Z,1000.911981916
2023-01-11T07:38:31.333Z,1000.8103905519998
2023-01-11T07:39:42.852Z,1000.8103905519998
2023-01-11T07:40:31.372Z,1001.1151646439998
2023-01-11T07:41:30.940Z,1000.8103905519998
2023-01-11T07:42:31.330Z,1000.708799188
2023-01-11T07:43:31.374Z,1000.8103905519998
2023-01-11T07:44:31.328Z,1000.6072078239999
2023-01-11T07:45:44.640Z,1000.437888884
2023-01-11T07:46:31.457Z,1000.539480248
2023-01-11T07:47:31.357Z,1000.437888884
2023-01-11T07:48:31.422Z,1000.2347061559999
2023-01-11T07:49:30.877Z,1000.6072078239999
2023-01-11T07:50:31.347Z,1000.2347061559999
2023-01-11T07:51:31.362Z,1000.437888884
2023-01-11T07:52:31.333Z,1000.6072078239999
2023-01-11T07:53:30.943Z,1000.3362975199999
2023-01-11T07:54:31.355Z,1000.437888884
2023-01-11T07:55:31.347Z,1000.3362975199999
2023-01-11T07:56:31.353Z,1000.3362975199999
2023-01-11T07:57:30.935Z,1000.3362975199999
2023-01-11T07:58:31.436Z,1000.437888884
2023-01-11T07:59:31.352Z,1000.539480248
2023-01-11T08:00:31.379Z,1000.2347061559999
2023-01-11T08:01:30.893Z,1000.2347061559999
2023-01-11T08:02:31.423Z,1000.2347061559999
2023-01-11T08:03:31.476Z,1000.2347061559999
2023-01-11T08:04:31.342Z,1000.437888884
2023-01-11T08:05:30.909Z,1000.133114792
2023-01-11T08:06:31.417Z,1000.3362975199999
2023-01-11T08:07:31.334Z,1000.133114792
2023-01-11T08:08:31.375Z,1000.0315234279999
2023-01-11T08:09:30.902Z,1000.0315234279999
2023-01-11T08:10:31.353Z,1000.0315234279999
2023-01-11T08:11:31.355Z,1000.133114792
2023-01-11T08:12:31.380Z,999.8283407
2023-01-11T08:13:30.956Z,999.9299320639999
2023-01-11T08:14:31.387Z,1000.2347061559999
2023-01-11T08:15:31.439Z,999.9299320639999
2023-01-11T08:16:31.373Z,999.8283407
2023-01-11T08:17:30.934Z,999.9299320639999
2023-01-11T08:18:31.375Z,999.6251579719999
2023-01-11T08:19:31.344Z,999.8283407
2023-01-11T08:20:31.406Z,999.6251579719999
2023-01-11T08:21:30.876Z,999.9299320639999
2023-01-11T08:22:31.359Z,999.9299320639999
2023-01-11T08:23:31.336Z,999.8283407
2023-01-11T08:24:31.361Z,999.7267493359999
2023-01-11T08:25:31.047Z,999.523566608
2023-01-11T08:26:31.335Z,999.7267493359999
2023-01-11T08:27:31.367Z,999.7267493359999
2023-01-11T08:28:31.345Z,999.8283407
2023-01-11T08:29:30.894Z,1000.0315234279999
2023-01-11T08:30:31.388Z,999.6251579719999
2023-01-11T08:31:31.348Z,999.7267493359999
2023-01-11T08:32:31.358Z,999.6251579719999
2023-01-11T08:33:30.885Z,999.6251579719999
2023-01-11T08:34:32.530Z,999.7267493359999
2023-01-11T08:35:31.349Z,999.8283407
2023-01-11T08:36:31.363Z,999.523566608
2023-01-11T08:37:30.848Z,999.523566608
2023-01-11T08:38:31.357Z,999.6251579719999
2023-01-11T08:39:31.350Z,999.7267493359999
2023-01-11T08:40:31.373Z,999.523566608
2023-01-11T08:41:30.908Z,999.9299320639999
2023-01-11T08:42:31.368Z,999.7267493359999
2023-01-11T08:43:31.369Z,999.8283407
2023-01-11T08:44:38.377Z,999.6251579719999
2023-01-11T08:45:30.885Z,999.6251579719999
2023-01-11T08:46:31.378Z,999.7267493359999
2023-01-11T08:47:31.449Z,999.8283407
2023-01-11T08:48:31.353Z,999.421975244
2023-01-11T08:49:31.011Z,999.421975244
2023-01-11T08:50:31.343Z,999.421975244
2023-01-11T08:51:31.393Z,999.32038388
2023-01-11T08:52:31.387Z,999.523566608
2023-01-11T08:53:30.873Z,999.32038388
2023-01-11T08:54:31.380Z,999.421975244
2023-01-11T08:55:31.373Z,999.2187925160001
2023-01-11T08:56:31.394Z,999.32038388
2023-01-11T08:57:30.892Z,999.2187925160001
2023-01-11T08:58:31.367Z,999.2187925160001
2023-01-11T08:59:31.432Z,999.2187925160001
2023-01-11T09:00:31.384Z,999.2187925160001
2023-01-11T09:01:30.927Z,999.2187925160001
2023-01-11T09:02:31.432Z,999.2187925160001
2023-01-11T09:03:31.481Z,999.421975244
2023-01-11T09:04:31.384Z,999.523566608
2023-01-11T09:05:30.852Z,999.32038388
2023-01-11T09:06:31.366Z,999.2187925160001
2023-01-11T09:07:31.369Z,999.2187925160001
2023-01-11T09:08:31.430Z,999.2187925160001
2023-01-11T09:09:30.854Z,999.2187925160001
2023-01-11T09:10:31.383Z,999.117201152
2023-01-11T09:11:31.352Z,999.015609788
2023-01-11T09:12:31.355Z,999.015609788
2023-01-11T09:13:30.883Z,999.015609788
2023-01-11T09:14:31.393Z,999.117201152
2023-01-11T09:15:31.373Z,998.9140184240001
2023-01-11T09:16:31.343Z,999.117201152
2023-01-11T09:17:30.894Z,998.9140184240001
2023-01-11T09:18:31.354Z,999.015609788
2023-01-11T09:19:31.362Z,999.117201152
2023-01-11T09:20:31.392Z,999.015609788
2023-01-11T09:21:30.878Z,999.015609788
2023-01-11T09:22:31.311Z,998.710835696
2023-01-11T09:23:31.337Z,999.015609788
2023-01-11T09:24:31.456Z,999.015609788
2023-01-11T09:25:30.948Z,999.2187925160001
2023-01-11T09:26:31.342Z,999.015609788
2023-01-11T09:27:31.354Z,998.9140184240001
2023-01-11T09:28:31.349Z,998.9140184240001
2023-01-11T09:29:30.919Z,998.9140184240001
2023-01-11T09:30:31.439Z,999.015609788
2023-01-11T09:31:31.391Z,998.9140184240001
2023-01-11T09:32:31.325Z,998.507652968
2023-01-11T09:33:30.879Z,998.9140184240001
2023-01-11T09:34:31.366Z,998.710835696
2023-01-11T09:35:31.348Z,998.9140184240001
2023-01-11T09:36:31.360Z,998.9140184240001
2023-01-11T09:37:30.852Z,998.9140184240001
2023-01-11T09:38:31.356Z,999.015609788